Time;durP1;ratioP1;P1;durP2;ratioP2;P2;SDS_P1;SDS_P2;PMS_P1;PMS_P2;Temp;Humidity;BMP_temperature;BMP_pressure;BME280_temperature;BME280_humidity;BME280_pressure;Samples;Min_cycle;Max_cycle;Signal;HPM_P1;HPM_P2
2021/12/16 00:01:50;;;;;;;27.02;13.27;;;;;;;0.70;100.00;102353.38;4958078;28;20052;-78
2021/12/16 00:31:51;;;;;;;23.20;12.70;;;;;;;0.53;100.00;102336.38;4944068;28;20050;-78
2021/12/16 00:34:24;;;;;;;23.83;13.50;;;;;;;0.46;100.00;102328.13;4957741;28;20494;-77
2021/12/16 00:36:52;;;;;;;24.20;12.75;;;;;;;0.47;100.00;102332.50;4956550;28;20055;-77
2021/12/16 00:39:24;;;;;;;23.02;13.50;;;;;;;0.48;100.00;102334.19;4957429;28;20051;-78
2021/12/16 00:41:59;;;;;;;22.30;13.27;;;;;;;0.46;100.00;102347.00;4956210;28;20059;-78
2021/12/16 00:49:45;;;;;;;21.85;12.20;;;;;;;0.44;100.00;102343.59;4955917;28;20074;-77
2021/12/16 00:55:23;;;;;;;23.90;13.25;;;;;;;0.55;100.00;102347.84;4942688;29;20050;-78
2021/12/16 00:57:52;;;;;;;25.70;14.05;;;;;;;0.56;100.00;102341.44;4955613;28;20436;-78
2021/12/16 01:00:26;;;;;;;25.88;13.45;;;;;;;0.59;100.00;102353.72;4954488;28;20063;-78
2021/12/16 01:03:21;;;;;;;25.60;13.70;;;;;;;0.58;100.00;102350.19;4955608;28;20047;-78
2021/12/16 01:09:50;;;;;;;30.25;16.52;;;;;;;0.54;100.00;102332.69;4956386;28;20062;-77
2021/12/16 01:42:27;;;;;;;28.88;15.35;;;;;;;0.44;100.00;102346.31;4954977;28;20501;-78
2021/12/16 01:50:17;;;;;;;33.22;16.00;;;;;;;0.40;100.00;102359.25;4956322;28;20047;-78
2021/12/16 01:56:02;;;;;;;24.40;13.48;;;;;;;0.32;100.00;102367.34;4941495;28;20047;-79
2021/12/16 01:58:33;;;;;;;27.88;15.10;;;;;;;0.33;100.00;102355.56;4937493;28;20050;-78
2021/12/16 02:01:18;;;;;;;24.83;13.40;;;;;;;0.33;100.00;102352.03;4953535;28;20055;-78
2021/12/16 02:03:52;;;;;;;26.75;15.38;;;;;;;0.31;100.00;102354.06;4953237;28;20047;-78
2021/12/16 02:08:56;;;;;;;23.85;13.88;;;;;;;0.26;100.00;102350.00;4969204;28;20070;-78
2021/12/16 02:28:24;;;;;;;23.13;12.10;;;;;;;0.28;100.00;102346.31;4941156;28;20055;-78
2021/12/16 02:36:36;;;;;;;19.08;10.57;;;;;;;0.13;100.00;102334.34;4969118;28;20051;-77
2021/12/16 02:39:21;;;;;;;23.13;10.75;;;;;;;0.18;100.00;102344.63;4952923;28;20475;-78
2021/12/16 02:42:04;;;;;;;19.65;10.80;;;;;;;0.20;100.00;102342.59;4952836;28;20054;-77
2021/12/16 02:48:29;;;;;;;21.60;11.27;;;;;;;0.20;100.00;102342.59;4953902;28;20070;-77
2021/12/16 02:50:07;;;;;;;19.48;11.00;;;;;;;0.30;100.00;102345.16;4954159;28;20387;-77
2021/12/16 02:52:36;;;;;;;20.63;11.50;;;;;;;0.28;100.00;102330.16;4954165;28;20054;-78
2021/12/16 02:55:07;;;;;;;21.08;10.90;;;;;;;0.17;100.00;102334.84;4952598;28;20035;-77
2021/12/16 02:57:44;;;;;;;18.80;11.95;;;;;;;0.18;100.00;102344.63;4953866;28;20054;-77
2021/12/16 03:00:15;;;;;;;24.80;12.02;;;;;;;0.26;100.00;102343.78;4952644;28;20051;-77
2021/12/16 03:02:49;;;;;;;21.43;11.13;;;;;;;0.36;100.00;102351.69;4952568;28;20043;-78
2021/12/16 03:05:19;;;;;;;20.30;11.80;;;;;;;0.21;100.00;102344.28;4952377;28;20310;-78
2021/12/16 03:07:49;;;;;;;22.17;10.95;;;;;;;0.13;100.00;102345.13;4953717;28;20486;-78
2021/12/16 03:13:08;;;;;;;23.70;11.10;;;;;;;0.07;100.00;102334.16;4956111;28;20430;-78
2021/12/16 03:18:52;;;;;;;21.73;10.80;;;;;;;0.02;100.00;102333.81;4968640;28;20124;-77
2021/12/16 03:21:30;;;;;;;17.73;9.70;;;;;;;-0.04;100.00;102341.53;4953444;28;20062;-78
2021/12/16 03:24:17;;;;;;;22.23;11.15;;;;;;;-0.07;100.00;102335.66;4957431;28;20051;-78
2021/12/16 03:37:28;;;;;;;18.65;10.02;;;;;;;-0.06;100.00;102330.09;4956802;28;20402;-77
2021/12/16 03:40:06;;;;;;;19.38;10.07;;;;;;;-0.09;100.00;102333.16;4955860;28;20046;-77
2021/12/16 03:42:50;;;;;;;15.68;9.23;;;;;;;-0.15;100.00;102321.19;4956057;28;20070;-77
2021/12/16 03:48:33;;;;;;;14.43;8.48;;;;;;;-0.28;100.00;102324.34;4955511;28;19933;-77
2021/12/16 03:51:12;;;;;;;19.02;9.95;;;;;;;-0.30;100.00;102331.72;4956094;28;20054;-77
2021/12/16 03:53:43;;;;;;;15.57;9.13;;;;;;;-0.33;100.00;102320.47;4939642;28;20494;-77
2021/12/16 03:56:17;;;;;;;17.83;10.00;;;;;;;-0.28;100.00;102321.63;4955470;28;20062;-77
2021/12/16 03:59:02;;;;;;;14.60;9.18;;;;;;;-0.20;100.00;102326.22;4971953;28;20398;-77
2021/12/16 04:01:40;;;;;;;15.05;9.20;;;;;;;-0.10;100.00;102323.38;4925248;29;20414;-78
2021/12/16 04:04:09;;;;;;;18.33;10.80;;;;;;;-0.17;100.00;102327.72;4939344;29;20055;-78
2021/12/16 04:06:38;;;;;;;16.15;10.07;;;;;;;-0.09;100.00;102319.69;4955042;28;20058;-77
2021/12/16 04:09:14;;;;;;;18.17;9.38;;;;;;;-0.16;100.00;102324.03;4955011;28;20048;-78
2021/12/16 04:12:07;;;;;;;17.63;10.20;;;;;;;-0.24;100.00;102324.88;4955356;28;20051;-77
2021/12/16 04:14:38;;;;;;;19.60;10.50;;;;;;;-0.24;100.00;102322.19;4955274;28;20047;-77
2021/12/16 04:17:09;;;;;;;15.50;9.35;;;;;;;-0.31;100.00;102323.81;4955191;28;20398;-78
2021/12/16 04:19:56;;;;;;;17.55;10.30;;;;;;;-0.36;100.00;102316.25;4960385;28;20501;-77
2021/12/16 04:22:33;;;;;;;16.17;9.82;;;;;;;-0.38;100.00;102296.75;4956282;28;20047;-77
2021/12/16 04:25:13;;;;;;;19.42;11.65;;;;;;;-0.36;100.00;102294.72;4955123;28;20062;-77
2021/12/16 04:27:42;;;;;;;19.42;10.75;;;;;;;-0.35;100.00;102293.72;4954586;28;20066;-77
2021/12/16 04:30:14;;;;;;;21.00;10.85;;;;;;;-0.32;100.00;102296.09;4970760;28;20051;-78
2021/12/16 04:32:44;;;;;;;16.88;9.27;;;;;;;-0.29;100.00;102301.13;4954791;28;20054;-78
2021/12/16 04:35:13;;;;;;;22.58;10.27;;;;;;;-0.24;100.00;102291.72;4954854;28;20058;-78
2021/12/16 04:37:44;;;;;;;16.75;9.68;;;;;;;-0.23;100.00;102288.03;4956130;28;20047;-77
2021/12/16 04:40:15;;;;;;;17.55;9.68;;;;;;;-0.24;100.00;102286.34;4954744;28;20493;-79
2021/12/16 04:42:49;;;;;;;19.48;11.80;;;;;;;-0.28;100.00;102292.03;4954536;28;20051;-77
2021/12/16 04:45:20;;;;;;;17.55;10.40;;;;;;;-0.29;100.00;102281.47;4970022;28;20055;-77
2021/12/16 04:47:50;;;;;;;16.02;10.80;;;;;;;-0.32;100.00;102293.41;4954242;28;20055;-77
2021/12/16 04:50:19;;;;;;;17.27;9.95;;;;;;;-0.36;100.00;102278.59;4954530;28;20051;-77
2021/12/16 04:52:47;;;;;;;19.23;10.00;;;;;;;-0.41;100.00;102286.31;4954305;28;20057;-78
2021/12/16 04:55:19;;;;;;;19.75;10.68;;;;;;;-0.41;100.00;102271.00;4953482;28;20418;-79
2021/12/16 04:57:49;;;;;;;18.58;9.95;;;;;;;-0.36;100.00;102264.28;4954347;28;20052;-77
2021/12/16 05:00:21;;;;;;;19.88;11.75;;;;;;;-0.30;100.00;102271.69;4954275;28;20054;-77
2021/12/16 05:03:00;;;;;;;20.05;11.43;;;;;;;-0.31;100.00;102270.88;4948473;28;20070;-76
2021/12/16 05:05:39;;;;;;;26.75;11.43;;;;;;;-0.36;100.00;102258.91;4951156;28;20046;-76
2021/12/16 05:08:08;;;;;;;20.00;10.88;;;;;;;-0.37;100.00;102266.16;4953950;28;20058;-76
2021/12/16 05:11:04;;;;;;;23.67;11.70;;;;;;;-0.37;100.00;102266.16;4950872;28;20062;-77
2021/12/16 05:13:38;;;;;;;21.77;12.27;;;;;;;-0.32;100.00;102266.50;4954328;28;20055;-76
2021/12/16 05:16:09;;;;;;;21.73;12.85;;;;;;;-0.36;100.00;102267.81;4954122;28;20051;-76
2021/12/16 05:18:44;;;;;;;20.52;11.85;;;;;;;-0.38;100.00;102259.09;4953170;28;20093;-76
2021/12/16 05:24:25;;;;;;;23.40;12.10;;;;;;;-0.30;100.00;102267.16;4925541;29;20050;-78
2021/12/16 05:27:06;;;;;;;24.20;12.10;;;;;;;-0.33;100.00;102264.81;4953987;28;20058;-79
2021/12/16 05:29:37;;;;;;;25.00;11.55;;;;;;;-0.32;100.00;102269.19;4953815;28;20043;-79
2021/12/16 05:32:06;;;;;;;21.52;11.55;;;;;;;-0.27;100.00;102271.38;4953823;28;20051;-79
2021/12/16 05:34:35;;;;;;;22.38;12.20;;;;;;;-0.22;100.00;102265.47;4953598;28;20047;-79
2021/12/16 05:37:05;;;;;;;18.88;11.50;;;;;;;-0.21;100.00;102268.03;4955242;28;20054;-78
2021/12/16 05:39:36;;;;;;;18.70;11.50;;;;;;;-0.22;100.00;102270.88;4953704;28;20043;-78
2021/12/16 05:42:17;;;;;;;23.73;11.10;;;;;;;-0.25;100.00;102273.91;4953636;28;20047;-78
2021/12/16 05:44:45;;;;;;;20.50;11.50;;;;;;;-0.26;100.00;102267.66;4952593;28;20051;-78
2021/12/16 05:47:14;;;;;;;18.10;11.35;;;;;;;-0.21;100.00;102269.84;4967810;28;20047;-78
2021/12/16 05:49:42;;;;;;;21.00;12.23;;;;;;;-0.15;100.00;102269.19;4953336;28;20078;-78
2021/12/16 05:52:10;;;;;;;25.17;13.27;;;;;;;-0.01;100.00;102271.25;4954534;28;20055;-78
2021/12/16 05:54:39;;;;;;;26.55;13.73;;;;;;;-0.05;100.00;102269.06;4953121;28;20055;-78
2021/12/16 05:57:17;;;;;;;29.27;14.02;;;;;;;-0.06;100.00;102272.72;4953558;28;20581;-78
2021/12/16 05:59:52;;;;;;;21.92;12.02;;;;;;;-0.09;100.00;102267.69;4952013;28;20062;-79
2021/12/16 06:02:20;;;;;;;25.77;11.75;;;;;;;-0.12;100.00;102263.50;4966107;28;20050;-78
2021/12/16 06:04:50;;;;;;;20.63;12.00;;;;;;;-0.16;100.00;102271.06;4968318;28;20047;-78
2021/12/16 06:07:20;;;;;;;22.63;12.13;;;;;;;-0.17;100.00;102276.59;4968512;28;20723;-79
2021/12/16 06:09:48;;;;;;;21.15;11.32;;;;;;;-0.08;100.00;102281.00;4968561;28;20051;-79
2021/12/16 06:12:16;;;;;;;19.65;11.18;;;;;;;-0.04;100.00;102286.88;4952718;28;20047;-79
2021/12/16 06:28:19;;;;;;;23.15;13.18;;;;;;;0.22;100.00;102284.03;4954694;28;20406;-79
2021/12/16 06:30:48;;;;;;;25.02;13.20;;;;;;;0.08;100.00;102288.25;4955942;28;20402;-79
2021/12/16 06:33:22;;;;;;;22.05;11.93;;;;;;;-0.01;100.00;102292.78;4954288;28;20047;-79
2021/12/16 06:35:54;;;;;;;27.77;12.88;;;;;;;-0.05;100.00;102280.66;4955322;28;20047;-79
2021/12/16 06:38:23;;;;;;;25.20;13.25;;;;;;;-0.02;100.00;102285.72;4938679;29;20055;-79
2021/12/16 06:41:14;;;;;;;21.77;12.93;;;;;;;0.03;100.00;102300.50;4953473;28;20063;-79
2021/12/16 06:44:11;;;;;;;25.00;13.80;;;;;;;0.11;100.00;102300.53;4952982;28;20053;-79
2021/12/16 06:46:41;;;;;;;29.48;13.30;;;;;;;0.09;100.00;102302.53;4959094;28;20057;-79
2021/12/16 06:49:12;;;;;;;25.55;13.38;;;;;;;0.09;100.00;102307.91;4961290;28;20054;-79
2021/12/16 06:51:52;;;;;;;23.70;12.63;;;;;;;0.08;100.00;102307.09;4961280;28;20047;-78
2021/12/16 06:54:36;;;;;;;24.85;13.07;;;;;;;0.13;100.00;102320.03;4942037;28;20051;-79
2021/12/16 06:59:52;;;;;;;29.23;14.85;;;;;;;0.19;100.00;102307.78;4958030;28;20409;-79
2021/12/16 07:05:13;;;;;;;25.85;12.93;;;;;;;0.24;100.00;102300.84;4957821;28;20047;-79
2021/12/16 07:07:42;;;;;;;22.83;12.40;;;;;;;0.39;100.00;102292.13;4959311;28;20054;-78
2021/12/16 07:10:12;;;;;;;23.52;12.73;;;;;;;0.39;100.00;102292.13;4963917;28;20544;-79
2021/12/16 07:12:47;;;;;;;25.42;13.40;;;;;;;0.39;100.00;102295.63;4963766;28;20059;-77
2021/12/16 07:15:22;;;;;;;23.70;12.68;;;;;;;0.50;100.00;102305.22;4963896;28;20398;-79
2021/12/16 07:17:52;;;;;;;22.38;12.18;;;;;;;0.48;100.00;102306.41;4973086;28;20046;-79
2021/12/16 07:20:24;;;;;;;22.60;12.98;;;;;;;0.63;100.00;102303.88;4973648;28;20047;-79
2021/12/16 07:22:54;;;;;;;21.83;12.35;;;;;;;0.65;100.00;102309.94;4973518;28;20046;-79
2021/12/16 07:25:22;;;;;;;24.73;12.27;;;;;;;0.66;100.00;102311.59;4973792;28;20051;-79
2021/12/16 07:27:51;;;;;;;24.60;11.73;;;;;;;0.78;100.00;102315.63;4956360;28;20043;-77
2021/12/16 07:30:22;;;;;;;21.30;12.57;;;;;;;1.01;100.00;102319.44;4955801;28;20070;-79
2021/12/16 07:32:52;;;;;;;24.83;12.35;;;;;;;1.02;100.00;102318.47;4958507;28;20047;-79
2021/12/16 07:35:24;;;;;;;25.48;12.80;;;;;;;1.13;100.00;102309.16;4960285;28;20051;-79
2021/12/16 07:37:53;;;;;;;21.45;13.05;;;;;;;1.04;100.00;102322.63;4964269;28;20074;-80
2021/12/16 07:40:26;;;;;;;21.58;12.35;;;;;;;0.97;100.00;102329.75;4970200;28;20067;-79
2021/12/16 07:45:28;;;;;;;24.98;13.05;;;;;;;0.97;100.00;102327.03;4962995;28;20055;-78
2021/12/16 07:47:57;;;;;;;20.42;11.82;;;;;;;1.10;100.00;102333.75;4961640;28;20043;-77
2021/12/16 07:50:25;;;;;;;42.58;22.30;;;;;;;1.16;100.00;102333.91;4966608;28;20509;-78
2021/12/16 07:52:54;;;;;;;53.28;31.08;;;;;;;1.17;100.00;102321.28;4960468;28;20046;-78
2021/12/16 07:55:22;;;;;;;50.22;28.30;;;;;;;1.11;100.00;102319.28;4957215;28;20051;-78
2021/12/16 07:57:50;;;;;;;48.13;28.58;;;;;;;1.05;100.00;102305.47;4956686;28;20067;-78
2021/12/16 08:00:24;;;;;;;44.88;26.80;;;;;;;0.94;100.00;102297.75;4956821;28;20055;-78
2021/12/16 08:02:53;;;;;;;53.42;27.48;;;;;;;1.05;100.00;102313.56;4956759;28;20051;-78
2021/12/16 08:05:24;;;;;;;49.70;29.45;;;;;;;1.11;100.00;102306.63;4954798;28;20058;-77
2021/12/16 08:07:53;;;;;;;53.33;29.02;;;;;;;1.14;100.00;102305.44;4955817;28;20059;-77
2021/12/16 08:10:24;;;;;;;51.60;27.98;;;;;;;1.11;100.00;102297.72;4955200;28;20063;-77
2021/12/16 08:12:52;;;;;;;44.17;26.17;;;;;;;1.26;100.00;102298.63;4956329;28;20059;-77
2021/12/16 08:15:21;;;;;;;43.60;24.83;;;;;;;1.51;100.00;102303.91;4956724;28;20351;-77
2021/12/16 08:17:49;;;;;;;39.80;23.88;;;;;;;1.64;100.00;102289.84;4956748;28;20055;-78
2021/12/16 08:20:18;;;;;;;42.33;24.00;;;;;;;1.92;100.00;102296.59;4956401;28;20482;-77
2021/12/16 08:22:48;;;;;;;44.15;24.05;;;;;;;2.17;98.70;102299.13;4956280;28;20059;-77
2021/12/16 08:25:19;;;;;;;43.72;26.33;;;;;;;2.36;97.93;102297.78;4956096;28;20055;-77
2021/12/16 08:27:48;;;;;;;55.55;28.60;;;;;;;2.40;96.74;102299.09;4956231;28;20501;-77
2021/12/16 08:30:22;;;;;;;49.28;27.02;;;;;;;2.46;96.79;102298.38;4956904;28;20063;-77
2021/12/16 08:32:56;;;;;;;54.30;28.15;;;;;;;2.45;96.00;102295.84;4955977;28;20043;-78
2021/12/16 08:35:24;;;;;;;56.42;28.30;;;;;;;2.61;95.29;102305.66;4956265;28;20047;-78
2021/12/16 08:37:52;;;;;;;49.85;27.70;;;;;;;3.05;93.46;102301.31;4956108;28;20050;-78
2021/12/16 08:40:22;;;;;;;50.53;27.02;;;;;;;2.68;95.23;102303.91;4956175;28;20524;-77
2021/12/16 08:42:51;;;;;;;56.58;27.95;;;;;;;2.93;93.92;102296.38;4958014;28;20517;-77
2021/12/16 08:45:24;;;;;;;48.88;27.05;;;;;;;3.49;91.79;102307.72;4960974;28;20051;-78
2021/12/16 08:47:53;;;;;;;44.30;25.45;;;;;;;3.71;89.81;102305.06;4962173;28;20047;-77
2021/12/16 08:50:24;;;;;;;42.47;25.17;;;;;;;3.75;89.78;102301.78;4961459;28;20059;-77
2021/12/16 08:52:54;;;;;;;42.38;24.17;;;;;;;3.87;89.65;102298.56;4958473;28;20490;-77
2021/12/16 08:55:22;;;;;;;48.00;23.67;;;;;;;3.85;89.58;102304.16;4957575;28;20062;-78
2021/12/16 08:57:50;;;;;;;45.38;24.63;;;;;;;4.16;89.97;102310.31;4956463;28;20043;-78
2021/12/16 09:00:22;;;;;;;48.25;23.48;;;;;;;4.22;89.58;102309.53;4954593;28;20051;-77
2021/12/16 09:02:50;;;;;;;36.33;22.77;;;;;;;4.23;89.41;102302.22;4956009;28;20055;-77
2021/12/16 09:05:20;;;;;;;42.03;23.30;;;;;;;4.27;89.39;102309.81;4955321;28;20050;-77
2021/12/16 09:07:48;;;;;;;42.80;21.90;;;;;;;4.28;88.26;102310.63;4955352;28;20478;-78
2021/12/16 09:10:25;;;;;;;39.97;23.48;;;;;;;4.79;88.65;102306.84;4955544;28;20109;-78
2021/12/16 09:13:03;;;;;;;38.70;23.23;;;;;;;4.82;86.31;102309.19;4955240;28;20044;-78
2021/12/16 09:15:37;;;;;;;46.97;23.13;;;;;;;4.53;88.38;102316.47;4955130;28;20486;-77
2021/12/16 09:18:05;;;;;;;;;;;;;;;4.47;89.44;102309.13;4955913;28;20047;-78
2021/12/16 09:20:34;;;;;;;38.55;21.58;;;;;;;4.74;88.32;102311.19;4954528;28;20289;-78
2021/12/16 09:23:04;;;;;;;35.05;22.63;;;;;;;4.90;87.45;102310.91;4937698;29;20058;-78
2021/12/16 09:25:33;;;;;;;35.85;21.17;;;;;;;5.14;85.92;102316.03;4954909;28;20418;-78
2021/12/16 09:28:01;;;;;;;35.70;22.00;;;;;;;5.16;86.03;102316.66;4954972;28;20043;-77
2021/12/16 09:30:30;;;;;;;42.38;23.42;;;;;;;5.13;86.68;102314.38;4955069;28;20482;-78
2021/12/16 09:33:01;;;;;;;41.47;24.92;;;;;;;5.06;86.00;102327.88;4954761;28;20047;-78
2021/12/16 09:35:33;;;;;;;41.42;24.30;;;;;;;5.46;85.69;102319.09;4955518;28;20055;-78
2021/12/16 09:38:03;;;;;;;48.72;24.65;;;;;;;5.29;84.54;102315.91;4954707;28;20043;-77
2021/12/16 09:40:36;;;;;;;40.83;25.10;;;;;;;5.43;85.47;102308.66;4954874;28;20051;-77
2021/12/16 09:43:05;;;;;;;41.95;27.15;;;;;;;5.62;84.20;102315.22;4954880;28;20051;-77
2021/12/16 09:45:53;;;;;;;45.50;28.08;;;;;;;5.69;83.76;102316.06;4954697;28;20074;-78
2021/12/16 09:48:22;;;;;;;47.67;28.10;;;;;;;5.90;82.35;102309.66;4954492;28;20050;-78
2021/12/16 09:50:51;;;;;;;52.58;28.73;;;;;;;6.02;82.05;102309.03;4954687;28;20055;-77
2021/12/16 09:53:20;;;;;;;37.28;24.52;;;;;;;6.24;82.30;102306.16;4954827;28;20059;-78
2021/12/16 09:55:57;;;;;;;39.45;23.98;;;;;;;6.39;80.51;102298.66;4954547;28;20051;-78
2021/12/16 09:58:32;;;;;;;42.92;24.02;;;;;;;6.60;81.12;102291.31;4954748;28;20063;-78
2021/12/16 10:01:00;;;;;;;39.75;22.63;;;;;;;7.00;78.65;102295.84;4953565;28;20043;-80
2021/12/16 10:03:28;;;;;;;50.70;27.85;;;;;;;7.04;77.81;102286.19;4954261;28;20051;-78
2021/12/16 10:05:57;;;;;;;51.53;29.42;;;;;;;7.07;76.98;102284.94;4954620;28;20055;-78
2021/12/16 10:08:25;;;;;;;47.55;28.02;;;;;;;7.24;76.59;102275.25;4954237;28;20143;-78
2021/12/16 10:10:53;;;;;;;49.90;31.77;;;;;;;7.23;77.72;102273.56;4954155;28;20039;-78
2021/12/16 10:13:31;;;;;;;54.90;32.65;;;;;;;7.25;76.66;102267.91;4953027;28;20046;-78
2021/12/16 10:18:36;;;;;;;44.38;27.15;;;;;;;6.94;78.38;102275.75;4954134;28;20058;-78
2021/12/16 10:21:07;;;;;;;35.28;21.65;;;;;;;7.31;78.60;102268.94;4954484;28;20059;-78
2021/12/16 10:23:42;;;;;;;35.53;21.67;;;;;;;7.64;77.05;102260.56;4952863;28;20406;-78
2021/12/16 10:26:22;;;;;;;24.77;15.23;;;;;;;7.62;77.00;102257.25;4954220;28;20110;-78
2021/12/16 10:28:53;;;;;;;25.70;16.63;;;;;;;7.91;75.79;102260.44;4953144;28;20070;-78
2021/12/16 10:31:34;;;;;;;27.65;17.08;;;;;;;8.21;73.84;102253.47;4954120;28;20498;-78
2021/12/16 10:34:09;;;;;;;30.15;16.88;;;;;;;8.17;73.09;102246.81;4954205;28;20047;-78
2021/12/16 10:36:40;;;;;;;24.52;16.40;;;;;;;8.25;74.75;102245.72;4954189;28;20067;-78
2021/12/16 10:39:13;;;;;;;27.33;14.65;;;;;;;8.43;73.54;102239.44;4953809;28;20055;-78
2021/12/16 10:41:51;;;;;;;27.00;15.75;;;;;;;8.14;74.32;102237.19;4941022;28;20066;-78
2021/12/16 10:44:20;;;;;;;22.70;15.48;;;;;;;8.37;74.54;102229.44;4954079;28;20078;-77
2021/12/16 10:46:59;;;;;;;26.80;16.92;;;;;;;8.54;73.49;102225.09;4954178;28;20050;-78
2021/12/16 10:49:32;;;;;;;27.85;15.85;;;;;;;8.46;74.00;102222.66;4954082;28;20066;-78
2021/12/16 10:52:11;;;;;;;25.08;16.73;;;;;;;8.29;74.45;102225.09;4953889;28;20055;-78
2021/12/16 10:54:42;;;;;;;28.40;15.73;;;;;;;8.34;75.42;102222.53;4953962;28;20062;-78
2021/12/16 10:57:20;;;;;;;28.13;16.17;;;;;;;8.20;74.87;102216.34;4953591;28;20398;-78
2021/12/16 10:59:52;;;;;;;24.23;15.82;;;;;;;8.09;75.17;102222.53;4968710;28;20114;-78
2021/12/16 11:02:28;;;;;;;31.08;16.67;;;;;;;8.28;75.65;102212.50;4953687;28;20406;-78
2021/12/16 11:05:01;;;;;;;24.83;14.98;;;;;;;8.51;74.44;102217.31;4952427;28;20059;-78
2021/12/16 11:07:33;;;;;;;20.15;14.65;;;;;;;8.51;74.20;102209.13;4953824;28;20509;-78
2021/12/16 11:10:21;;;;;;;20.38;12.70;;;;;;;8.77;71.21;102217.28;4952638;28;20043;-78
2021/12/16 11:12:51;;;;;;;16.52;10.82;;;;;;;8.81;72.52;102210.34;4954249;28;20054;-78
2021/12/16 11:15:32;;;;;;;15.65;10.30;;;;;;;8.83;72.20;102210.94;4953598;28;20047;-78
2021/12/16 11:18:16;;;;;;;15.52;10.52;;;;;;;9.04;71.87;102206.06;4953664;28;20047;-78
2021/12/16 11:21:00;;;;;;;17.23;10.68;;;;;;;9.26;71.39;102204.53;4953644;28;20506;-78
2021/12/16 11:23:34;;;;;;;15.88;11.52;;;;;;;9.28;69.61;102207.00;4953443;28;20517;-78
2021/12/16 11:26:15;;;;;;;36.50;17.38;;;;;;;8.60;72.77;102210.56;4952320;28;20047;-78
2021/12/16 11:28:47;;;;;;;31.83;15.48;;;;;;;8.94;73.23;102203.88;4953953;28;20055;-78
2021/12/16 11:31:28;;;;;;;21.58;12.45;;;;;;;9.12;73.07;102195.66;4953346;28;20039;-78
2021/12/16 11:34:07;;;;;;;21.48;12.20;;;;;;;9.35;71.22;102199.56;4953395;28;20047;-78
2021/12/16 11:36:45;;;;;;;20.42;12.90;;;;;;;9.32;69.98;102197.28;4940424;28;20051;-78
2021/12/16 11:39:19;;;;;;;18.55;12.63;;;;;;;9.37;69.48;102199.31;4953325;28;20062;-78
2021/12/16 11:41:53;;;;;;;28.20;16.83;;;;;;;9.38;70.36;102195.50;4953246;28;20050;-79
2021/12/16 11:44:21;;;;;;;22.55;15.02;;;;;;;9.26;70.15;102198.22;4954270;28;20058;-78
2021/12/16 11:47:08;;;;;;;28.60;19.98;;;;;;;9.25;71.57;102202.03;4957091;28;20047;-77
2021/12/16 11:49:40;;;;;;;41.95;26.80;;;;;;;8.98;75.38;102208.66;4956629;28;20043;-78
2021/12/16 11:52:18;;;;;;;44.28;26.30;;;;;;;9.20;75.00;102199.13;4957063;28;20047;-77
2021/12/16 11:54:53;;;;;;;36.47;24.10;;;;;;;9.08;74.23;102201.81;4956979;28;20533;-78
2021/12/16 11:57:27;;;;;;;34.00;22.70;;;;;;;9.21;74.64;102206.25;4956804;28;20462;-78
2021/12/16 12:00:05;;;;;;;33.50;22.13;;;;;;;9.22;73.73;102202.47;4957232;28;20499;-77
2021/12/16 12:02:40;;;;;;;36.38;25.55;;;;;;;9.35;74.56;102196.84;4956723;28;20054;-78
2021/12/16 12:05:22;;;;;;;41.20;27.05;;;;;;;9.09;75.03;102207.03;4956425;28;20490;-77
2021/12/16 12:08:09;;;;;;;41.15;25.42;;;;;;;8.99;74.87;102201.28;4959127;28;20478;-77
2021/12/16 12:10:36;;;;;;;39.35;27.95;;;;;;;8.68;79.12;102197.66;4956106;28;20422;-78
2021/12/16 12:13:07;;;;;;;44.40;28.10;;;;;;;8.73;77.88;102192.34;4956776;28;20062;-77
2021/12/16 12:16:13;;;;;;;39.13;26.42;;;;;;;8.73;78.03;102195.09;4956420;28;20062;-77
2021/12/16 12:18:44;;;;;;;54.40;33.20;;;;;;;8.93;78.64;102180.34;4955164;28;20055;-77
2021/12/16 12:21:33;;;;;;;52.45;33.10;;;;;;;8.74;78.62;102197.59;4956633;28;20063;-80
2021/12/16 12:24:26;;;;;;;49.83;33.15;;;;;;;8.52;80.31;102196.38;4956603;28;20051;-80
2021/12/16 12:27:01;;;;;;;61.15;35.58;;;;;;;8.42;80.32;102191.41;4956467;28;20498;-78
2021/12/16 12:29:34;;;;;;;53.28;33.92;;;;;;;8.43;81.42;102185.72;4955837;28;20047;-78
2021/12/16 12:32:11;;;;;;;48.88;32.88;;;;;;;8.23;82.25;102185.94;4956034;28;20429;-78
2021/12/16 12:34:42;;;;;;;51.70;34.53;;;;;;;8.22;83.24;102184.25;4956353;28;20047;-78
2021/12/16 12:37:12;;;;;;;53.20;33.63;;;;;;;8.14;83.24;102192.72;4955981;28;20051;-78
2021/12/16 12:39:44;;;;;;;52.67;33.97;;;;;;;7.98;83.70;102194.13;4956332;28;20050;-78
2021/12/16 12:42:14;;;;;;;62.58;36.53;;;;;;;7.89;84.20;102188.09;4956283;28;20051;-78
2021/12/16 12:44:43;;;;;;;54.70;36.78;;;;;;;7.81;84.92;102183.75;4955628;28;20047;-77
2021/12/16 12:47:25;;;;;;;53.47;34.65;;;;;;;7.81;84.19;102197.38;4955922;28;20043;-77
2021/12/16 12:50:07;;;;;;;56.78;36.47;;;;;;;7.39;86.30;102189.72;4955443;28;20051;-77
2021/12/16 12:52:36;;;;;;;49.75;34.95;;;;;;;7.47;86.29;102184.00;4955627;28;20043;-77
2021/12/16 12:55:13;;;;;;;56.40;34.67;;;;;;;7.20;87.31;102188.75;4955250;28;20402;-77
2021/12/16 12:57:43;;;;;;;55.78;36.28;;;;;;;7.25;87.55;102186.22;4954364;28;20046;-77
2021/12/16 13:00:30;;;;;;;51.10;34.40;;;;;;;7.19;86.75;102185.19;4953742;28;20069;-77
2021/12/16 13:03:06;;;;;;;55.28;34.85;;;;;;;7.25;86.92;102181.59;4954425;28;20051;-78
2021/12/16 13:05:35;;;;;;;53.03;34.45;;;;;;;7.27;87.10;102181.38;4954045;28;20059;-77
2021/12/16 13:08:08;;;;;;;54.83;35.47;;;;;;;7.32;86.89;102180.72;4953229;28;20086;-78
2021/12/16 13:10:38;;;;;;;55.10;36.38;;;;;;;7.32;87.05;102180.72;4951023;28;20162;-77
2021/12/16 13:13:31;;;;;;;51.33;35.13;;;;;;;7.40;86.45;102183.19;4953728;28;20044;-78
2021/12/16 13:27:41;;;;;;;56.17;35.28;;;;;;;7.10;87.51;102183.78;4961334;28;20050;-76
2021/12/16 13:30:21;;;;;;;56.25;32.65;;;;;;;6.94;88.72;102191.38;4960355;28;20039;-77
2021/12/16 13:33:15;;;;;;;59.15;35.10;;;;;;;6.92;89.07;102195.38;4963563;28;20043;-76
2021/12/16 13:35:52;;;;;;;54.38;34.42;;;;;;;7.07;89.34;102200.53;4954488;28;20062;-77
2021/12/16 13:38:23;;;;;;;55.58;34.55;;;;;;;7.24;88.17;102196.28;4961330;28;20501;-78
2021/12/16 13:41:11;;;;;;;56.67;35.42;;;;;;;7.44;87.30;102206.25;4961484;28;20051;-77
2021/12/16 13:43:55;;;;;;;53.78;33.25;;;;;;;7.77;85.24;102216.06;4963977;28;20042;-77
2021/12/16 13:46:40;;;;;;;50.78;34.85;;;;;;;7.78;84.77;102216.91;4963460;28;20050;-78
2021/12/16 13:58:12;;;;;;;54.63;36.08;;;;;;;7.03;87.76;102207.50;4961923;28;20047;-79
2021/12/16 13:58:19;;;;;;;58.22;35.42;;;;;;;6.44;92.10;102225.44;4954121;28;20055;-78
2021/12/16 14:03:53;;;;;;;63.30;38.78;;;;;;;5.97;94.77;102211.00;4952043;28;20047;-78
2021/12/16 14:06:59;;;;;;;59.42;36.28;;;;;;;5.93;95.17;102224.16;4942597;28;20394;-78
2021/12/16 14:09:32;;;;;;;61.83;36.33;;;;;;;5.73;95.00;102230.38;4952991;28;20513;-77
2021/12/16 14:15:07;;;;;;;68.20;40.10;;;;;;;5.47;97.22;102245.59;4951760;28;20043;-76
2021/12/16 14:23:34;;;;;;;64.07;38.00;;;;;;;5.26;99.63;102235.72;4952128;28;20055;-77
2021/12/16 14:26:19;;;;;;;69.75;39.47;;;;;;;5.33;99.18;102235.75;4951016;29;20039;-76
2021/12/16 14:33:32;;;;;;;77.28;40.10;;;;;;;5.17;100.00;102242.34;4952311;28;20058;-78
2021/12/16 14:35:02;;;;;;;74.28;40.42;;;;;;;5.18;100.00;102246.75;4945971;28;20506;-79
2021/12/16 14:37:51;;;;;;;68.97;40.65;;;;;;;5.00;100.00;102250.00;4954767;28;20405;-78
2021/12/16 14:41:04;;;;;;;80.65;43.28;;;;;;;5.02;100.00;102262.31;4953148;28;20047;-76
2021/12/16 14:43:51;;;;;;;73.72;41.17;;;;;;;4.91;100.00;102263.75;4965529;28;20055;-76
2021/12/16 14:46:27;;;;;;;72.75;42.63;;;;;;;4.88;100.00;102261.41;4952345;28;20058;-78
2021/12/16 14:48:55;;;;;;;73.75;40.67;;;;;;;4.73;100.00;102263.44;4952148;28;20047;-77
2021/12/16 14:51:34;;;;;;;71.38;41.08;;;;;;;4.71;100.00;102255.47;4952571;29;20043;-77